Time;durP1;ratioP1;P1;durP2;ratioP2;P2;SDS_P1;SDS_P2;PMS_P1;PMS_P2;Temp;Humidity;BMP_temperature;BMP_pressure;BME280_temperature;BME280_humidity;BME280_pressure;Samples;Min_cycle;Max_cycle;Signal;HPM_P1;HPM_P2
2023/01/04 00:02:17;;;;;;;21.37;7.37;;;;;;;-145.69;100.00;52547.38;5072266;28;20202;-79
2023/01/04 00:04:43;;;;;;;22.23;7.03;;;;;;;-145.69;100.00;52551.31;5086512;28;20205;-80
2023/01/04 00:07:09;;;;;;;25.97;7.77;;;;;;;-145.69;100.00;52533.50;5078000;28;20285;-81
2023/01/04 00:09:36;;;;;;;25.30;7.87;;;;;;;-145.69;100.00;52547.38;5072375;28;20203;-81
2023/01/04 00:12:04;;;;;;;23.03;6.80;;;;;;;-145.69;100.00;52547.38;5072497;28;20199;-80
2023/01/04 00:14:33;;;;;;;18.53;6.13;;;;;;;-145.69;100.00;52594.91;5074300;28;20202;-80
2023/01/04 00:17:00;;;;;;;23.53;6.77;;;;;;;-145.69;100.00;52563.22;5075976;28;20203;-80
2023/01/04 00:19:26;;;;;;;16.93;6.87;;;;;;;-145.69;100.00;52586.97;5076115;28;20203;-80
2023/01/04 00:21:53;;;;;;;19.10;6.57;;;;;;;-145.69;100.00;52614.72;5076388;28;20198;-80
2023/01/04 00:24:19;;;;;;;18.83;6.60;;;;;;;-145.69;100.00;52598.84;5076400;28;20219;-81
2023/01/04 00:26:48;;;;;;;19.60;6.23;;;;;;;-145.69;100.00;52559.25;5076723;28;20199;-80
2023/01/04 00:29:15;;;;;;;19.55;7.28;;;;;;;-145.69;100.00;52555.28;5075535;28;20442;-80
2023/01/04 00:31:43;;;;;;;18.37;5.90;;;;;;;-145.69;100.00;52592.91;5075470;28;20252;-80
2023/01/04 00:34:12;;;;;;;15.37;5.30;;;;;;;-145.69;100.00;52543.41;5075885;28;20210;-80
2023/01/04 00:36:39;;;;;;;15.83;4.87;;;;;;;-145.69;100.00;52555.28;5075199;28;20195;-80
2023/01/04 00:39:08;;;;;;;18.67;5.67;;;;;;;-145.69;100.00;52586.97;5075623;28;20234;-80
2023/01/04 00:41:38;;;;;;;13.87;5.57;;;;;;;-145.69;100.00;52559.25;5076693;28;20566;-80
2023/01/04 00:44:05;;;;;;;19.47;5.20;;;;;;;-145.69;100.00;52555.28;5075767;28;20264;-80
2023/01/04 00:46:34;;;;;;;18.83;5.90;;;;;;;-145.69;100.00;52569.16;5071163;28;20203;-81
2023/01/04 00:49:01;;;;;;;21.40;5.97;;;;;;;-145.69;100.00;52575.09;5075801;28;20661;-79
2023/01/04 00:51:30;;;;;;;16.07;5.20;;;;;;;-145.69;100.00;52598.84;5075368;28;20569;-80
2023/01/04 00:53:56;;;;;;;13.47;4.30;;;;;;;-145.69;100.00;52557.28;5075299;28;20572;-80
2023/01/04 00:56:23;;;;;;;15.03;5.57;;;;;;;-145.69;100.00;52585.00;5075380;28;20205;-80
2023/01/04 00:58:54;;;;;;;13.30;4.07;;;;;;;-145.69;100.00;52549.34;5075201;28;20301;-80
2023/01/04 01:01:20;;;;;;;12.47;3.77;;;;;;;-145.69;100.00;52575.09;5075409;28;20207;-80
2023/01/04 01:03:52;;;;;;;18.13;4.17;;;;;;;-145.69;100.00;52569.16;5075409;28;20589;-80
2023/01/04 01:06:18;;;;;;;15.67;5.40;;;;;;;-145.69;100.00;52573.13;5074298;28;20557;-80
2023/01/04 01:08:44;;;;;;;15.43;4.77;;;;;;;-145.69;100.00;52563.22;5075585;28;20617;-80
2023/01/04 01:11:11;;;;;;;12.67;4.07;;;;;;;-145.69;100.00;52573.13;5075067;28;20560;-79
2023/01/04 01:13:39;;;;;;;11.77;4.27;;;;;;;-145.69;100.00;52585.00;5057816;28;20199;-80
2023/01/04 01:16:07;;;;;;;12.87;4.30;;;;;;;-145.69;100.00;52583.00;5055317;28;20214;-80
2023/01/04 01:18:34;;;;;;;8.50;3.67;;;;;;;-145.69;100.00;52547.38;5055417;28;20234;-80
2023/01/04 01:21:04;;;;;;;14.53;4.60;;;;;;;-145.69;100.00;52575.09;5054836;28;20203;-80
2023/01/04 01:23:31;;;;;;;12.13;4.53;;;;;;;-145.69;100.00;52563.22;5055364;28;20207;-79
2023/01/04 01:26:00;;;;;;;15.50;4.67;;;;;;;-145.69;100.00;52583.00;5055006;28;20536;-79
2023/01/04 01:28:29;;;;;;;13.27;4.50;;;;;;;-145.69;100.00;52588.97;5054920;28;20202;-79
2023/01/04 01:30:55;;;;;;;12.53;4.83;;;;;;;-145.69;100.00;52594.91;5054525;28;20203;-79
2023/01/04 01:33:25;;;;;;;16.23;4.33;;;;;;;-145.69;100.00;52567.16;5054761;28;20203;-80
2023/01/04 01:35:51;;;;;;;8.40;3.60;;;;;;;-145.69;100.00;52551.31;5055866;28;20222;-80
2023/01/04 01:38:19;;;;;;;9.67;4.00;;;;;;;-145.69;100.00;52575.09;5074079;28;20740;-79
2023/01/04 01:40:48;;;;;;;11.90;3.83;;;;;;;-145.69;100.00;52533.50;5074354;28;20194;-79
2023/01/04 01:43:18;;;;;;;11.65;5.03;;;;;;;-145.69;100.00;52563.22;5073492;28;20438;-80
2023/01/04 01:45:46;;;;;;;9.90;3.93;;;;;;;-145.69;100.00;52575.09;5074653;28;20206;-80
2023/01/04 01:48:16;;;;;;;8.77;3.93;;;;;;;-145.69;100.00;52547.38;5074455;28;20209;-80
2023/01/04 01:50:50;;;;;;;10.47;3.57;;;;;;;-145.69;100.00;52565.19;5073916;28;20646;-80
2023/01/04 01:53:17;;;;;;;11.38;4.47;;;;;;;-145.69;100.00;52545.38;5073262;28;20457;-80
2023/01/04 01:55:46;;;;;;;8.43;3.80;;;;;;;-145.69;100.00;52565.19;5074662;28;20199;-80
2023/01/04 01:58:21;;;;;;;9.50;4.27;;;;;;;-145.69;100.00;52559.25;5073518;28;20227;-81
2023/01/04 02:00:50;;;;;;;8.20;3.20;;;;;;;-145.69;100.00;52553.31;5074466;28;20202;-80
2023/01/04 02:03:20;;;;;;;7.40;3.67;;;;;;;-145.69;100.00;52565.19;5074115;28;20199;-80
2023/01/04 02:05:49;;;;;;;9.40;3.90;;;;;;;-145.69;100.00;52559.25;5073840;28;20202;-79
2023/01/04 02:08:22;;;;;;;11.67;3.63;;;;;;;-145.69;100.00;52551.31;5070112;28;20202;-79
2023/01/04 02:10:50;;;;;;;5.77;2.63;;;;;;;-145.69;100.00;52563.22;5073771;28;20220;-80
2023/01/04 02:13:20;;;;;;;6.13;2.67;;;;;;;-145.69;100.00;52586.97;5073887;28;20205;-80
2023/01/04 02:15:59;;;;;;;9.70;2.90;;;;;;;-145.69;100.00;52590.94;5073607;28;20206;-80
2023/01/04 02:18:32;;;;;;;4.13;2.20;;;;;;;-145.69;100.00;52559.25;5073724;28;20356;-81
2023/01/04 02:21:02;;;;;;;7.33;2.37;;;;;;;-145.69;100.00;52563.22;5073828;28;20206;-80
2023/01/04 02:23:47;;;;;;;6.07;2.30;;;;;;;-145.69;100.00;52583.00;5073861;28;20194;-80
2023/01/04 02:26:46;;;;;;;5.80;2.40;;;;;;;-145.69;100.00;52575.09;5073361;28;20570;-80
2023/01/04 02:29:37;;;;;;;6.40;2.40;;;;;;;-145.69;100.00;52571.13;5073749;28;20256;-79
2023/01/04 02:32:12;;;;;;;5.27;2.50;;;;;;;-145.69;100.00;52527.56;5073780;28;20199;-80
2023/01/04 02:34:49;;;;;;;5.33;2.63;;;;;;;-145.69;100.00;52590.94;5074141;28;20569;-79
2023/01/04 02:37:23;;;;;;;4.70;2.43;;;;;;;-145.69;100.00;52585.00;5072630;28;20191;-79
2023/01/04 02:40:02;;;;;;;7.07;2.90;;;;;;;-145.69;100.00;52547.38;5073347;28;20234;-80
2023/01/04 02:45:26;;;;;;;5.87;2.50;;;;;;;-145.69;100.00;52585.00;5073644;28;20553;-80
2023/01/04 02:50:50;;;;;;;3.80;2.30;;;;;;;-145.69;100.00;52565.19;5073248;28;20193;-80
2023/01/04 02:53:20;;;;;;;4.27;2.60;;;;;;;-145.69;100.00;52547.38;5072849;28;20203;-80
2023/01/04 02:55:53;;;;;;;3.57;1.90;;;;;;;-145.69;100.00;52539.44;5073380;28;20365;-80
2023/01/04 02:58:38;;;;;;;2.77;2.03;;;;;;;-145.69;100.00;52594.91;5073119;28;20711;-79
2023/01/04 03:07:23;;;;;;;4.83;2.67;;;;;;;-145.69;100.00;52579.06;5050670;28;20198;-80
2023/01/04 03:09:56;;;;;;;3.77;2.13;;;;;;;-145.69;100.00;52543.41;5066987;28;20213;-80
2023/01/04 03:12:31;;;;;;;3.53;2.20;;;;;;;-145.69;100.00;52563.22;5072276;28;20273;-80
2023/01/04 03:15:04;;;;;;;4.03;2.10;;;;;;;-145.69;100.00;52559.25;5072331;28;20450;-79
2023/01/04 03:17:35;;;;;;;3.20;2.00;;;;;;;-145.69;100.00;52555.28;5073482;28;20199;-79
2023/01/04 03:20:06;;;;;;;3.77;2.47;;;;;;;-145.69;100.00;52551.31;5072836;28;20582;-79
2023/01/04 03:36:55;;;;;;;2.77;1.90;;;;;;;-145.69;100.00;52551.31;5072834;28;20268;-80
2023/01/04 03:50:57;;;;;;;3.10;1.77;;;;;;;-145.69;100.00;52575.09;5076530;28;20272;-80
2023/01/04 03:53:28;;;;;;;2.90;1.83;;;;;;;-145.69;100.00;52523.59;5076772;28;20210;-79
2023/01/04 03:55:59;;;;;;;2.77;1.87;;;;;;;-145.69;100.00;52557.28;5077472;28;20201;-79
2023/01/04 03:58:27;;;;;;;2.77;2.03;;;;;;;-145.69;100.00;52579.06;5076684;28;20264;-80
2023/01/04 04:01:02;;;;;;;4.37;2.00;;;;;;;-145.69;100.00;52579.06;5076279;28;20198;-79
2023/01/04 04:09:01;;;;;;;3.20;1.50;;;;;;;-145.69;100.00;52598.84;5076254;28;20221;-80
2023/01/04 04:11:30;;;;;;;2.67;1.57;;;;;;;-145.69;100.00;52543.41;5076532;28;20202;-80
2023/01/04 04:13:57;;;;;;;4.07;2.20;;;;;;;-145.69;100.00;52541.44;5076025;28;20294;-80
2023/01/04 04:16:24;;;;;;;2.27;1.60;;;;;;;-145.69;100.00;52563.22;5076261;28;20569;-80
2023/01/04 04:18:53;;;;;;;4.40;2.47;;;;;;;-145.69;100.00;52577.06;5076102;28;20707;-78
2023/01/04 04:21:20;;;;;;;3.57;2.27;;;;;;;-145.69;100.00;52557.28;5076138;28;20225;-80
2023/01/04 04:23:48;;;;;;;2.73;2.07;;;;;;;-145.69;100.00;52551.31;5075938;28;20263;-79
2023/01/04 04:26:16;;;;;;;3.00;1.97;;;;;;;-145.69;100.00;52519.63;5076160;28;20209;-80
2023/01/04 04:28:46;;;;;;;3.13;2.10;;;;;;;-145.69;100.00;52535.47;5076562;28;20202;-80
2023/01/04 04:31:13;;;;;;;3.77;2.47;;;;;;;-145.69;100.00;52571.13;5075577;28;20195;-79
2023/01/04 04:33:40;;;;;;;3.57;2.07;;;;;;;-145.69;100.00;52549.34;5075536;28;20669;-79
2023/01/04 04:36:08;;;;;;;4.47;2.30;;;;;;;-145.69;100.00;52567.16;5075899;28;20227;-80
2023/01/04 04:38:35;;;;;;;3.20;2.10;;;;;;;-145.69;100.00;52519.63;5075756;28;20696;-80
2023/01/04 04:43:52;;;;;;;5.00;2.47;;;;;;;-145.69;100.00;52559.25;5074380;28;20205;-80
2023/01/04 04:46:18;;;;;;;4.33;2.23;;;;;;;-145.69;100.00;52594.91;5074395;28;20205;-80
2023/01/04 04:48:45;;;;;;;8.63;2.20;;;;;;;-145.69;100.00;52551.31;5074127;28;20736;-80
2023/01/04 04:51:11;;;;;;;2.60;1.93;;;;;;;-145.69;100.00;52583.00;5074072;28;20203;-80
2023/01/04 04:53:38;;;;;;;3.00;2.03;;;;;;;-145.69;100.00;52561.22;5074555;28;20199;-80
2023/01/04 04:56:05;;;;;;;4.00;2.27;;;;;;;-145.69;100.00;52569.16;5074253;28;20290;-79
2023/01/04 04:58:32;;;;;;;4.33;2.20;;;;;;;-145.69;100.00;52547.38;5074576;28;20230;-80
2023/01/04 05:00:59;;;;;;;2.87;1.87;;;;;;;-145.69;100.00;52517.66;5073585;28;20191;-80
2023/01/04 05:03:26;;;;;;;3.27;1.70;;;;;;;-145.69;100.00;52543.41;5074098;28;20205;-80
2023/01/04 05:05:52;;;;;;;2.20;1.40;;;;;;;-145.69;100.00;52559.25;5074212;28;20202;-80
2023/01/04 05:08:19;;;;;;;4.53;1.57;;;;;;;-145.69;100.00;52561.22;5070283;28;20195;-80
2023/01/04 05:10:46;;;;;;;2.13;1.50;;;;;;;-145.69;100.00;52555.28;5074140;28;20205;-80
2023/01/04 05:13:12;;;;;;;1.63;1.20;;;;;;;-145.69;100.00;52535.47;5073986;28;20206;-80
2023/01/04 05:15:40;;;;;;;3.30;1.60;;;;;;;-145.69;100.00;52535.47;5073992;28;20206;-80
2023/01/04 05:18:09;;;;;;;2.03;1.43;;;;;;;-145.69;100.00;52539.44;5074023;28;20206;-80
2023/01/04 05:20:36;;;;;;;4.07;1.80;;;;;;;-145.69;100.00;52557.28;5073875;28;20222;-80
2023/01/04 05:23:05;;;;;;;4.47;1.87;;;;;;;-145.69;100.00;52535.47;5073943;28;20260;-81
2023/01/04 05:25:32;;;;;;;2.97;1.67;;;;;;;-145.69;100.00;52545.38;5073713;28;20209;-80
2023/01/04 05:27:59;;;;;;;1.83;1.50;;;;;;;-145.69;100.00;52555.28;5073691;28;20195;-79
2023/01/04 05:33:15;;;;;;;2.20;1.53;;;;;;;-145.69;100.00;52567.16;5073620;28;20321;-80
2023/01/04 05:35:41;;;;;;;3.70;1.40;;;;;;;-145.69;100.00;52557.28;5073481;28;20198;-79
2023/01/04 05:38:09;;;;;;;2.47;1.60;;;;;;;-145.69;100.00;52535.47;5073516;28;20199;-79
2023/01/04 05:40:36;;;;;;;2.07;1.23;;;;;;;-145.69;100.00;52555.28;5073740;28;20233;-80
2023/01/04 05:43:06;;;;;;;4.83;1.60;;;;;;;-145.69;100.00;52543.41;5037149;28;1047383;-80
2023/01/04 05:45:32;;;;;;;5.63;1.77;;;;;;;-145.69;100.00;52571.13;5074438;28;20203;-80
2023/01/04 05:48:00;;;;;;;4.87;1.97;;;;;;;-145.69;100.00;52539.44;5074042;28;20199;-80
2023/01/04 05:50:30;;;;;;;3.57;1.57;;;;;;;-145.69;100.00;52535.47;5074029;28;20569;-79
2023/01/04 05:52:59;;;;;;;2.50;1.40;;;;;;;-145.69;100.00;52569.16;5074314;28;20580;-79
2023/01/04 05:55:27;;;;;;;2.27;1.37;;;;;;;-145.69;100.00;52543.41;5074090;28;20195;-79
2023/01/04 05:57:54;;;;;;;2.30;1.27;;;;;;;-145.69;100.00;52590.94;5074220;28;20565;-79
2023/01/04 06:00:20;;;;;;;1.27;1.07;;;;;;;-145.69;100.00;52541.44;5073891;28;20232;-80
2023/01/04 06:02:47;;;;;;;2.37;1.17;;;;;;;-145.69;100.00;52531.53;5073982;28;20203;-80
2023/01/04 06:05:13;;;;;;;1.50;1.20;;;;;;;-145.69;100.00;52480.03;5074039;28;20293;-79
2023/01/04 06:07:41;;;;;;;1.53;1.07;;;;;;;-145.69;100.00;52535.47;5073924;28;20658;-80
2023/01/04 06:10:12;;;;;;;1.43;0.93;;;;;;;-145.69;100.00;52598.84;5074003;28;20210;-79
2023/01/04 06:12:39;;;;;;;2.20;1.20;;;;;;;-145.69;100.00;52543.41;5073138;28;20202;-80
2023/01/04 06:15:08;;;;;;;3.23;1.27;;;;;;;-145.69;100.00;52586.97;5073917;28;20202;-79
2023/01/04 06:17:38;;;;;;;1.13;0.90;;;;;;;-145.69;100.00;52519.63;5073805;28;20230;-79
2023/01/04 06:20:09;;;;;;;3.80;1.50;;;;;;;-145.69;100.00;52535.47;5073756;28;20226;-79
2023/01/04 06:22:39;;;;;;;1.97;1.00;;;;;;;-145.69;100.00;52509.75;5073654;28;20203;-80
2023/01/04 06:25:09;;;;;;;2.80;1.10;;;;;;;-145.69;100.00;52501.81;5073813;28;20661;-80
2023/01/04 06:27:36;;;;;;;0.90;0.90;;;;;;;-145.69;100.00;52531.53;5073629;28;20194;-80
2023/01/04 06:30:03;;;;;;;2.03;1.20;;;;;;;-145.69;100.00;52553.31;5073087;28;20197;-80
2023/01/04 06:32:29;;;;;;;1.00;0.90;;;;;;;-145.69;100.00;52571.13;5073847;28;20195;-80
2023/01/04 06:34:56;;;;;;;1.20;0.90;;;;;;;-145.69;100.00;52525.59;5073629;28;20198;-80
2023/01/04 06:37:22;;;;;;;5.83;1.93;;;;;;;-145.69;100.00;52523.59;5073547;28;20206;-80
2023/01/04 06:39:49;;;;;;;1.77;1.20;;;;;;;-145.69;100.00;52541.44;5073021;28;20229;-79
2023/01/04 06:45:03;;;;;;;2.83;0.90;;;;;;;-145.69;100.00;52531.53;5073607;28;20199;-79
2023/01/04 06:47:29;;;;;;;3.90;0.70;;;;;;;-145.69;100.00;52517.66;5073639;28;20205;-79
2023/01/04 06:50:01;;;;;;;2.10;0.73;;;;;;;-145.69;100.00;52525.59;5073159;28;20286;-79
2023/01/04 06:52:29;;;;;;;1.50;1.00;;;;;;;-145.69;100.00;52519.63;5073370;28;20561;-80
2023/01/04 06:54:57;;;;;;;2.70;0.80;;;;;;;-145.69;100.00;52547.38;5072990;28;20237;-80
2023/01/04 06:57:26;;;;;;;2.13;1.07;;;;;;;-145.69;100.00;52515.69;5073161;28;20194;-80
2023/01/04 06:59:53;;;;;;;1.07;0.80;;;;;;;-145.69;100.00;52559.25;5073002;28;20234;-80
2023/01/04 07:02:19;;;;;;;2.87;1.10;;;;;;;-145.69;100.00;52573.13;5073271;28;20202;-80
2023/01/04 07:04:47;;;;;;;1.50;1.07;;;;;;;-145.69;100.00;52511.72;5073061;28;20205;-80
2023/01/04 07:07:15;;;;;;;3.27;0.87;;;;;;;-145.69;100.00;52535.47;5072650;28;20417;-80
2023/01/04 07:09:42;;;;;;;1.90;1.00;;;;;;;-145.69;100.00;52539.44;5069445;28;20686;-79
2023/01/04 07:12:09;;;;;;;3.40;1.17;;;;;;;-145.69;100.00;52555.28;5073290;28;20198;-79
2023/01/04 07:14:37;;;;;;;2.10;1.00;;;;;;;-145.69;100.00;52511.72;5073273;28;20202;-80
2023/01/04 07:17:06;;;;;;;2.00;1.27;;;;;;;-145.69;100.00;52527.56;5073110;28;20199;-80
2023/01/04 07:19:32;;;;;;;2.73;1.10;;;;;;;-145.69;100.00;52535.47;5072765;28;20218;-79
2023/01/04 07:22:01;;;;;;;3.33;2.00;;;;;;;-145.69;100.00;52535.47;5073912;28;20657;-79
2023/01/04 07:24:31;;;;;;;4.50;1.53;;;;;;;-145.69;100.00;52499.84;5072906;28;20206;-80
2023/01/04 07:27:02;;;;;;;4.23;2.27;;;;;;;-145.69;100.00;52545.38;5073019;28;20198;-80
2023/01/04 07:29:28;;;;;;;20.37;9.37;;;;;;;-145.69;100.00;52509.75;5072772;28;20191;-80
2023/01/04 07:31:56;;;;;;;1.43;0.90;;;;;;;-145.69;97.38;52519.63;5073090;28;20198;-80
2023/01/04 07:34:24;;;;;;;3.10;1.23;;;;;;;-145.69;97.08;52521.63;5072588;28;20205;-79
2023/01/04 07:36:52;;;;;;;3.10;2.23;;;;;;;-145.69;96.03;52545.38;5072650;28;20244;-78
2023/01/04 07:39:19;;;;;;;2.67;1.70;;;;;;;-145.69;94.70;52519.63;5072766;28;20764;-79
2023/01/04 07:41:56;;;;;;;3.53;1.23;;;;;;;-145.69;93.77;52517.66;5072244;28;20239;-79
2023/01/04 07:44:27;;;;;;;1.37;1.00;;;;;;;-145.69;97.72;52505.78;5072753;28;20202;-80
2023/01/04 07:46:53;;;;;;;1.53;1.00;;;;;;;-145.69;92.76;52523.59;5072885;28;20221;-79
2023/01/04 07:49:21;;;;;;;3.43;0.90;;;;;;;-145.69;91.35;52535.47;5072152;28;20274;-80
2023/01/04 07:51:49;;;;;;;1.00;0.87;;;;;;;-145.69;86.61;52509.75;5072295;28;20297;-80
2023/01/04 07:54:18;;;;;;;0.70;0.70;;;;;;;-145.69;90.43;52511.72;5072645;28;20574;-80
2023/01/04 07:56:50;;;;;;;3.40;0.80;;;;;;;-145.69;88.02;52545.38;5072558;28;20218;-79
2023/01/04 07:59:19;;;;;;;1.10;0.70;;;;;;;-145.69;90.19;52495.88;5072191;28;20203;-80
2023/01/04 08:01:47;;;;;;;1.00;0.90;;;;;;;-145.69;91.15;52511.72;5072285;28;20211;-76
2023/01/04 08:04:15;;;;;;;1.53;0.60;;;;;;;-145.69;88.67;52474.09;5072167;28;20704;-79
2023/01/04 08:06:45;;;;;;;1.87;0.70;;;;;;;-145.69;90.95;52519.63;5071978;28;20653;-80
2023/01/04 08:09:12;;;;;;;2.57;0.73;;;;;;;-145.69;86.63;52505.78;5071874;28;20569;-80
2023/01/04 08:11:39;;;;;;;1.83;1.17;;;;;;;-145.69;87.09;52519.63;5072349;28;20209;-80
2023/01/04 08:14:06;;;;;;;4.30;1.33;;;;;;;-145.69;88.28;52505.78;5072130;28;20202;-80
2023/01/04 08:16:34;;;;;;;8.80;3.70;;;;;;;-145.69;88.83;52485.97;5071820;28;20202;-79
2023/01/04 08:19:03;;;;;;;8.03;3.33;;;;;;;-145.69;89.89;52515.69;5072629;28;20198;-81
2023/01/04 08:21:31;;;;;;;3.83;1.10;;;;;;;-145.69;93.31;52523.59;5072284;28;20249;-80
2023/01/04 08:23:59;;;;;;;2.73;1.37;;;;;;;-145.69;91.81;52484.00;5072362;28;20203;-79
2023/01/04 08:26:28;;;;;;;2.00;0.80;;;;;;;-145.69;91.87;52503.81;5072072;28;20209;-77
2023/01/04 08:28:55;;;;;;;1.80;1.20;;;;;;;-145.69;91.66;52470.13;5072231;28;20328;-80
2023/01/04 08:31:24;;;;;;;3.33;1.00;;;;;;;-145.69;93.08;52511.72;5072118;28;20202;-80
2023/01/04 08:33:52;;;;;;;0.67;0.50;;;;;;;-145.69;92.99;52499.84;5072230;28;20662;-80
2023/01/04 08:36:24;;;;;;;1.27;0.60;;;;;;;-145.69;94.86;52515.69;5074810;28;20199;-80
2023/01/04 08:38:55;;;;;;;1.47;0.80;;;;;;;-145.69;93.63;52507.75;5075586;28;20199;-83
2023/01/04 08:41:23;;;;;;;0.73;0.73;;;;;;;-145.69;90.96;52491.91;5076229;28;20253;-81
2023/01/04 08:43:53;;;;;;;0.70;0.70;;;;;;;-145.69;90.98;52503.81;5075621;28;20731;-81
2023/01/04 08:46:22;;;;;;;1.40;0.70;;;;;;;-145.69;89.82;52472.13;5077407;28;20198;-82
2023/01/04 08:48:49;;;;;;;2.20;0.63;;;;;;;-145.69;89.55;52503.81;5077483;28;20210;-82
2023/01/04 08:51:16;;;;;;;1.33;0.60;;;;;;;-145.69;89.05;52474.09;5076524;28;20471;-81
2023/01/04 08:53:48;;;;;;;1.33;0.60;;;;;;;-145.69;88.17;52487.97;5077802;28;20290;-81
2023/01/04 08:56:14;;;;;;;0.73;0.70;;;;;;;-145.69;88.73;52511.72;5075682;28;20206;-80
2023/01/04 08:58:43;;;;;;;2.80;0.73;;;;;;;-145.69;89.29;52491.91;5075735;28;20199;-80
2023/01/04 09:01:11;;;;;;;1.50;0.60;;;;;;;-145.69;91.18;52480.03;5075484;28;20226;-81
2023/01/04 09:03:41;;;;;;;2.37;1.00;;;;;;;-145.69;90.35;52472.13;5075370;28;20234;-81
2023/01/04 09:06:13;;;;;;;1.17;0.60;;;;;;;-145.69;91.81;52493.91;5075624;28;20202;-80
2023/01/04 09:08:41;;;;;;;1.37;0.63;;;;;;;-145.69;91.82;52507.75;5074530;28;20661;-80
2023/01/04 09:11:09;;;;;;;2.23;0.80;;;;;;;-145.69;94.91;52480.03;5074511;28;20661;-81
2023/01/04 09:13:37;;;;;;;1.63;0.80;;;;;;;-145.69;96.58;52499.84;5075141;28;20210;-81
2023/01/04 09:16:08;;;;;;;0.97;0.60;;;;;;;-145.69;93.41;52468.16;5072160;28;20199;-81
2023/01/04 09:18:35;;;;;;;3.03;0.60;;;;;;;-145.69;92.92;52503.81;5075934;28;20201;-82
2023/01/04 09:21:05;;;;;;;1.23;0.60;;;;;;;-145.69;96.33;52464.19;5078129;28;20228;-83
2023/01/04 09:23:34;;;;;;;1.13;0.57;;;;;;;-145.69;96.07;52499.84;5076927;28;20210;-83
2023/01/04 09:26:05;;;;;;;1.10;0.97;;;;;;;-145.69;96.41;52458.25;5073338;28;20205;-80
2023/01/04 09:28:32;;;;;;;2.53;1.00;;;;;;;-145.69;94.88;52472.13;5074459;28;20620;-81
2023/01/04 09:30:59;;;;;;;2.37;1.03;;;;;;;-145.69;94.43;52446.38;5074378;28;20197;-81
2023/01/04 09:33:28;;;;;;;1.77;0.97;;;;;;;-145.69;95.09;52472.13;5074720;28;20199;-80
2023/01/04 09:35:55;;;;;;;4.97;1.50;;;;;;;-145.69;98.10;52468.16;5075214;28;20199;-82
2023/01/04 09:38:21;;;;;;;5.10;0.50;;;;;;;-145.69;96.35;52460.22;5075253;28;20223;-82
2023/01/04 09:40:56;;;;;;;1.93;1.10;;;;;;;-145.69;96.08;52460.22;5075021;28;20241;-82
2023/01/04 09:43:24;;;;;;;2.97;1.10;;;;;;;-145.69;96.19;52491.91;5073992;28;20692;-82
2023/01/04 09:46:04;;;;;;;1.63;0.77;;;;;;;-145.69;99.70;52456.28;5073341;28;20199;-82
2023/01/04 09:48:33;;;;;;;2.87;0.70;;;;;;;-145.69;98.36;52501.81;5073978;28;20232;-80
2023/01/04 09:51:04;;;;;;;1.20;0.87;;;;;;;-145.69;99.07;52482.00;5074621;28;20199;-81
2023/01/04 09:53:37;;;;;;;0.90;0.80;;;;;;;-145.69;99.78;52470.13;5074566;28;20202;-83
2023/01/04 09:56:10;;;;;;;0.63;0.50;;;;;;;-145.69;98.74;52489.94;5074671;28;20198;-80
2023/01/04 09:58:41;;;;;;;1.00;0.70;;;;;;;-145.69;100.00;52484.00;5073185;28;20445;-80
2023/01/04 10:01:16;;;;;;;1.33;0.70;;;;;;;-145.69;100.00;52476.06;5074377;28;20233;-80
2023/01/04 10:03:57;;;;;;;1.13;0.70;;;;;;;-145.69;100.00;52474.09;5074065;28;20198;-81
2023/01/04 10:06:23;;;;;;;1.83;0.67;;;;;;;-145.69;99.46;52452.31;5074380;28;20230;-81
2023/01/04 10:08:50;;;;;;;1.70;1.03;;;;;;;-145.69;100.00;52484.00;5073913;28;20550;-83
2023/01/04 10:11:27;;;;;;;3.00;1.00;;;;;;;-145.69;98.50;52476.06;5073284;28;20191;-81
2023/01/04 10:14:11;;;;;;;1.33;1.00;;;;;;;-145.69;99.11;52476.06;5074306;28;20688;-81
2023/01/04 10:16:53;;;;;;;4.17;0.47;;;;;;;-145.69;99.17;52501.81;5074052;28;20203;-80
2023/01/04 10:19:33;;;;;;;0.70;0.70;;;;;;;-145.69;99.69;52474.09;5073670;28;20206;-81
2023/01/04 10:22:06;;;;;;;0.93;0.60;;;;;;;-145.69;100.00;52460.22;5073518;28;20248;-79
2023/01/04 10:24:43;;;;;;;0.80;0.70;;;;;;;-145.69;100.00;52476.06;5074498;28;20260;-83
2023/01/04 10:27:17;;;;;;;1.70;0.70;;;;;;;-145.69;100.00;52432.50;5074674;28;20320;-82
2023/01/04 10:29:56;;;;;;;3.20;0.80;;;;;;;-145.69;100.00;52448.34;5074374;28;20207;-84
2023/01/04 10:32:32;;;;;;;1.20;0.70;;;;;;;-145.69;100.00;52452.31;5075777;28;20210;-84
2023/01/04 10:35:00;;;;;;;1.27;0.90;;;;;;;-145.69;100.00;52464.19;5075154;28;20209;-83
2023/01/04 10:37:33;;;;;;;0.63;0.57;;;;;;;-145.69;100.00;52460.22;5074655;28;20279;-84
2023/01/04 10:40:00;;;;;;;0.70;0.50;;;;;;;-145.69;100.00;52464.19;5074032;28;20713;-83
2023/01/04 10:42:34;;;;;;;1.20;0.73;;;;;;;-145.69;100.00;52472.13;5074318;28;20234;-84
2023/01/04 10:45:15;;;;;;;0.60;0.60;;;;;;;-145.69;100.00;52474.09;5076492;28;20205;-85
2023/01/04 10:47:51;;;;;;;0.50;0.40;;;;;;;-145.69;100.00;52444.38;5062425;28;20199;-84
2023/01/04 10:50:27;;;;;;;0.60;0.50;;;;;;;-145.69;100.00;52476.06;5075412;28;20230;-83
2023/01/04 10:52:59;;;;;;;1.63;0.90;;;;;;;-145.69;100.00;52468.16;5075426;28;20198;-84
2023/01/04 10:55:37;;;;;;;1.27;0.80;;;;;;;-145.69;100.00;52464.19;5075295;28;20203;-85
2023/01/04 10:58:11;;;;;;;1.00;0.70;;;;;;;-145.69;100.00;52484.00;5074181;28;20194;-85
2023/01/04 11:00:44;;;;;;;0.50;0.50;;;;;;;-145.69;100.00;52476.06;5076050;28;20731;-86
2023/01/04 11:03:19;;;;;;;1.07;0.70;;;;;;;-145.69;100.00;52501.81;5074931;28;20198;-84
2023/01/04 11:05:54;;;;;;;1.37;0.90;;;;;;;-145.69;100.00;52420.63;5076179;28;20202;-82
2023/01/04 11:08:23;;;;;;;2.70;0.70;;;;;;;-145.69;100.00;52454.28;5072018;28;20989;-85
2023/01/04 11:10:54;;;;;;;2.03;0.80;;;;;;;-145.69;100.00;52503.81;5073859;28;20203;-84
2023/01/04 11:13:23;;;;;;;1.27;0.80;;;;;;;-145.69;100.00;52476.06;5070054;28;20199;-84
2023/01/04 11:15:51;;;;;;;2.43;1.40;;;;;;;-145.69;100.00;52460.22;5074848;28;20206;-83
2023/01/04 11:18:21;;;;;;;1.60;0.70;;;;;;;-145.69;100.00;52464.19;5075336;28;20195;-84
2023/01/04 11:20:49;;;;;;;0.70;0.70;;;;;;;-145.69;100.00;52507.75;5074174;28;20272;-84
2023/01/04 11:23:18;;;;;;;0.87;0.60;;;;;;;-145.69;100.00;52476.06;5074814;28;20195;-84
2023/01/04 11:25:49;;;;;;;4.40;0.80;;;;;;;-145.69;100.00;52440.44;5074197;28;20207;-83
2023/01/04 11:28:21;;;;;;;0.83;0.70;;;;;;;-145.69;100.00;52456.28;5073836;28;20205;-84
2023/01/04 11:30:54;;;;;;;2.53;0.83;;;;;;;-145.69;100.00;52491.91;5073590;28;20256;-84
2023/01/04 11:33:24;;;;;;;1.90;0.87;;;;;;;-145.69;100.00;52470.13;5072251;28;20222;-83
2023/01/04 11:35:57;;;;;;;1.10;0.70;;;;;;;-145.69;100.00;52484.00;5074339;28;20649;-84
2023/01/04 11:38:26;;;;;;;1.57;0.70;;;;;;;-145.69;100.00;52472.13;5072658;28;20210;-78
2023/01/04 11:41:01;;;;;;;0.70;0.70;;;;;;;-145.69;100.00;52428.53;5072095;28;20230;-80
2023/01/04 11:43:29;;;;;;;2.20;0.70;;;;;;;-145.69;100.00;52503.81;5074412;28;20257;-83
2023/01/04 11:45:59;;;;;;;2.33;0.80;;;;;;;-145.69;100.00;52468.16;5074731;28;20319;-83
2023/01/04 11:48:42;;;;;;;0.87;0.60;;;;;;;-145.69;100.00;52489.94;5073979;28;20266;-81
2023/01/04 11:51:35;;;;;;;1.10;0.67;;;;;;;-145.69;100.00;52503.81;5073515;28;20653;-81
2023/01/04 11:54:04;;;;;;;2.00;0.80;;;;;;;-145.69;100.00;52462.22;5066899;28;20749;-81
2023/01/04 11:56:32;;;;;;;1.90;0.83;;;;;;;-145.69;100.00;52480.03;5073589;28;20590;-79
2023/01/04 11:59:07;;;;;;;1.27;1.00;;;;;;;-145.69;100.00;52476.06;5073135;28;20685;-80
2023/01/04 12:01:37;;;;;;;1.77;0.90;;;;;;;-145.69;100.00;52503.81;5074530;28;20309;-81
2023/01/04 12:04:12;;;;;;;2.73;1.23;;;;;;;-145.69;100.00;52474.09;5053703;28;20195;-81
2023/01/04 12:06:45;;;;;;;0.87;0.60;;;;;;;-145.69;100.00;52450.31;5053542;28;20231;-81
2023/01/04 12:09:14;;;;;;;2.10;0.90;;;;;;;-145.69;100.00;52478.06;5068202;28;20237;-79
2023/01/04 12:11:45;;;;;;;1.55;0.80;;;;;;;-145.69;100.00;52482.00;5075081;28;20488;-81
2023/01/04 12:14:19;;;;;;;1.73;0.90;;;;;;;-145.69;100.00;52444.38;5076372;28;20202;-79